KRKP

Aransas Co Airport

Rockport, Texas, USA
METAR KRKP 210353Z AUTO 10004KT 1/4SM FG VV002 14/14 A3002 RMK AO2 SLP166 T01440144
Observed Flight Rules
Jan-21 @ 03:53 UTC (44 minutes ago) Instrument Flight Rules
Wind Visibility Clouds Conditions
100° at 4 knots 1/4 miles
  • Vertical visibility at 200' AGL
  • Fog
Temperatures Readings
Current 14°C / 57°F
Dewpoint 14°C / 57°F
Humidity 100%
Altimeter 30.02" Hg
Pressure 1016.6 hPa
Elevation 6
METAR KRKP 210353Z AUTO 10004KT 1/4SM FG VV002 14/14 A3002 RMK AO2 SLP166 T01440144
Observed Flight Rules
Jan-21 @ 03:53 UTC
(44 minutes ago)
LIFR
Wind Visibility
100° at 4 knots 1/4 miles
Clouds
  • Vertical visibility at 200' AGL
Conditions
  • Fog
Temperature Dewpoint
14°C / 57°F 14°C / 57°F
Humidity Altimeter Pressure
100% 30.02" Hg 1016.6 hPa